createdAt,value
2022-12-03T00:01:55.560Z,39.88
2022-12-03T00:04:27.652Z,39.55
2022-12-03T00:06:59.598Z,47.42
2022-12-03T00:09:31.607Z,45.75
2022-12-03T00:12:03.764Z,43.65
2022-12-03T00:14:39.954Z,43.33
2022-12-03T00:17:14.925Z,45.35
2022-12-03T00:19:46.875Z,42.63
2022-12-03T00:22:18.890Z,39.65
2022-12-03T00:24:51.596Z,48.25
2022-12-03T00:27:23.861Z,38.80
2022-12-03T00:29:55.813Z,40.67
2022-12-03T00:32:27.896Z,43.75
2022-12-03T00:34:59.917Z,39.90
2022-12-03T00:37:31.923Z,43.47
2022-12-03T00:40:05.880Z,44.30
2022-12-03T00:42:37.810Z,39.33
2022-12-03T00:45:10.412Z,41.00
2022-12-03T00:47:42.392Z,42.35
2022-12-03T00:50:14.377Z,48.00
2022-12-03T00:52:46.489Z,43.20
2022-12-03T00:55:18.495Z,41.13
2022-12-03T00:57:50.493Z,44.15
2022-12-03T01:00:24.731Z,45.10
2022-12-03T01:02:56.667Z,45.65
2022-12-03T01:05:28.629Z,41.83
2022-12-03T01:08:00.611Z,40.83
2022-12-03T01:10:32.619Z,47.80
2022-12-03T01:13:04.599Z,45.97
2022-12-03T01:15:36.656Z,46.65
2022-12-03T01:18:08.652Z,44.42
2022-12-03T01:20:40.770Z,45.60
2022-12-03T01:23:12.736Z,48.42
2022-12-03T01:25:44.691Z,45.58
2022-12-03T01:28:16.661Z,45.58
2022-12-03T01:31:07.598Z,44.15
2022-12-03T01:33:39.601Z,54.25
2022-12-03T01:36:11.812Z,51.05
2022-12-03T01:38:43.791Z,50.42
2022-12-03T01:41:18.286Z,44.95
2022-12-03T01:43:51.552Z,46.30
2022-12-03T01:46:28.631Z,51.13
2022-12-03T01:49:01.047Z,50.65
2022-12-03T01:51:33.061Z,52.50
2022-12-03T01:54:05.206Z,50.25
2022-12-03T01:56:37.145Z,45.63
2022-12-03T01:59:14.390Z,65.43
2022-12-03T02:01:46.575Z,51.47
2022-12-03T02:04:21.959Z,52.42
2022-12-03T02:06:54.083Z,52.25
2022-12-03T02:09:26.051Z,48.50
2022-12-03T02:11:58.292Z,50.88
2022-12-03T02:14:30.240Z,47.08
2022-12-03T02:17:02.293Z,49.65
2022-12-03T02:19:34.664Z,46.35
2022-12-03T02:22:24.045Z,49.58
2022-12-03T02:25:32.280Z,52.90
2022-12-03T02:28:06.403Z,47.85
2022-12-03T02:30:38.456Z,49.85
2022-12-03T02:33:10.807Z,52.60
2022-12-03T02:35:42.920Z,47.13
2022-12-03T02:38:25.943Z,52.67
2022-12-03T02:41:04.290Z,53.85
2022-12-03T02:43:36.844Z,48.38
2022-12-03T02:46:09.381Z,50.65
2022-12-03T02:48:41.931Z,48.08
2022-12-03T02:51:13.967Z,57.35
2022-12-03T02:53:48.900Z,53.78
2022-12-03T02:56:27.892Z,49.40
2022-12-03T02:59:03.553Z,53.63
2022-12-03T03:01:35.567Z,54.63
2022-12-03T03:04:07.626Z,49.45
2022-12-03T03:06:39.588Z,52.15
2022-12-03T03:09:11.561Z,60.10
2022-12-03T03:11:43.613Z,63.20
2022-12-03T03:14:15.800Z,50.17
2022-12-03T03:16:55.841Z,53.78
2022-12-03T03:19:30.179Z,59.08
2022-12-03T03:22:02.219Z,56.95
2022-12-03T03:24:34.202Z,53.08
2022-12-03T03:27:06.556Z,54.38
2022-12-03T03:29:38.753Z,52.45
2022-12-03T03:32:10.750Z,53.88
2022-12-03T03:34:42.853Z,56.03
2022-12-03T03:37:14.833Z,54.50
2022-12-03T03:39:46.930Z,61.95
2022-12-03T03:42:19.133Z,58.50
2022-12-03T03:44:51.542Z,54.45
2022-12-03T03:47:24.147Z,64.20
2022-12-03T03:49:56.357Z,62.97
2022-12-03T03:52:28.570Z,67.68
2022-12-03T03:55:00.706Z,58.83
2022-12-03T03:57:33.085Z,59.55
2022-12-03T04:00:08.571Z,66.07
2022-12-03T04:02:41.797Z,57.08
2022-12-03T04:05:20.592Z,62.50
2022-12-03T04:07:52.746Z,63.08
2022-12-03T04:10:43.127Z,65.43
2022-12-03T04:15:46.977Z,69.63
2022-12-03T04:18:37.184Z,60.10
2022-12-03T04:21:37.176Z,52.75
2022-12-03T04:24:11.039Z,58.67
2022-12-03T04:27:01.397Z,62.60
2022-12-03T04:29:33.327Z,67.85
2022-12-03T04:32:24.063Z,57.08
2022-12-03T04:35:14.708Z,50.92
2022-12-03T04:37:46.719Z,62.33
2022-12-03T04:40:37.394Z,64.20
2022-12-03T04:43:09.358Z,60.65
2022-12-03T04:45:41.337Z,60.45
2022-12-03T04:48:13.315Z,55.17
2022-12-03T04:50:45.327Z,64.03
2022-12-03T04:53:17.521Z,52.90
2022-12-03T04:55:49.440Z,60.45
2022-12-03T04:58:21.424Z,61.08
2022-12-03T05:00:53.417Z,65.40
2022-12-03T05:03:25.401Z,58.55
2022-12-03T05:05:57.338Z,62.97
2022-12-03T05:08:29.300Z,64.88
2022-12-03T05:11:01.211Z,65.05
2022-12-03T05:13:33.175Z,60.33
2022-12-03T05:16:05.445Z,56.40
2022-12-03T05:18:37.453Z,64.75
2022-12-03T05:21:09.400Z,59.30
2022-12-03T05:23:42.413Z,59.05
2022-12-03T05:26:14.350Z,57.70
2022-12-03T05:28:46.342Z,61.38
2022-12-03T05:31:18.633Z,64.45
2022-12-03T05:33:50.681Z,68.53
2022-12-03T05:36:22.823Z,67.70
2022-12-03T05:38:54.780Z,63.55
2022-12-03T05:41:45.038Z,71.22
2022-12-03T05:46:52.826Z,67.80
2022-12-03T05:49:24.778Z,65.60
2022-12-03T05:51:58.603Z,67.75
2022-12-03T05:54:30.912Z,65.78
2022-12-03T05:57:02.931Z,65.43
2022-12-03T05:59:34.905Z,60.40
2022-12-03T06:02:06.915Z,64.22
2022-12-03T06:04:38.951Z,63.38
2022-12-03T06:07:13.976Z,69.35
2022-12-03T06:09:46.361Z,67.50
2022-12-03T06:12:18.367Z,67.88
2022-12-03T06:14:50.636Z,71.35
2022-12-03T06:17:22.778Z,70.15
2022-12-03T06:19:54.727Z,73.70
2022-12-03T06:22:27.061Z,68.43
2022-12-03T06:25:04.845Z,74.00
2022-12-03T06:27:38.769Z,69.10
2022-12-03T06:30:13.903Z,68.25
2022-12-03T06:32:45.820Z,69.30
2022-12-03T06:35:17.859Z,75.28
2022-12-03T06:37:49.845Z,75.25
2022-12-03T06:40:21.805Z,70.60
2022-12-03T06:42:53.750Z,64.75
2022-12-03T06:45:25.667Z,72.78
2022-12-03T06:47:57.583Z,78.30
2022-12-03T06:50:29.555Z,76.43
2022-12-03T06:53:02.245Z,73.22
2022-12-03T06:55:34.189Z,71.10
2022-12-03T06:58:06.141Z,69.82
2022-12-03T07:00:38.069Z,71.13
2022-12-03T07:03:10.114Z,70.20
2022-12-03T07:05:42.106Z,77.28
2022-12-03T07:08:14.145Z,77.10
2022-12-03T07:10:46.170Z,75.20
2022-12-03T07:13:18.101Z,74.90
2022-12-03T07:15:50.101Z,65.53
2022-12-03T07:18:22.153Z,73.05
2022-12-03T07:20:54.332Z,82.50
2022-12-03T07:23:26.299Z,81.47
2022-12-03T07:25:58.293Z,81.28
2022-12-03T07:28:30.254Z,72.97
2022-12-03T07:31:02.325Z,82.15
2022-12-03T07:33:34.303Z,72.53
2022-12-03T07:36:06.684Z,78.03
2022-12-03T07:38:38.764Z,83.38
2022-12-03T07:41:10.847Z,88.07
2022-12-03T07:43:42.819Z,68.03
2022-12-03T07:46:14.848Z,82.68
2022-12-03T07:48:46.858Z,70.07
2022-12-03T07:51:18.897Z,71.03
2022-12-03T07:53:50.848Z,79.65
2022-12-03T07:56:22.833Z,68.18
2022-12-03T07:58:54.834Z,68.43
2022-12-03T08:01:26.925Z,69.32
2022-12-03T08:03:58.955Z,80.07
2022-12-03T08:06:31.010Z,72.28
2022-12-03T08:09:03.011Z,80.05
2022-12-03T08:11:35.015Z,70.00
2022-12-03T08:14:17.121Z,74.00
2022-12-03T08:16:49.317Z,69.47
2022-12-03T08:19:21.363Z,76.65
2022-12-03T08:21:58.063Z,80.30
2022-12-03T08:24:33.066Z,74.35
2022-12-03T08:27:16.603Z,79.47
2022-12-03T08:29:48.552Z,74.35
2022-12-03T08:32:20.685Z,78.32
2022-12-03T08:34:52.952Z,82.57
2022-12-03T08:37:25.083Z,77.18
2022-12-03T08:39:57.065Z,80.53
2022-12-03T08:42:43.448Z,80.85
2022-12-03T08:45:40.286Z,75.18
2022-12-03T08:48:21.160Z,78.40
2022-12-03T08:50:59.501Z,84.18
2022-12-03T08:53:46.473Z,76.40
2022-12-03T08:56:29.189Z,77.22
2022-12-03T08:59:31.751Z,88.18
2022-12-03T09:02:18.991Z,75.30
2022-12-03T09:04:53.246Z,75.25
2022-12-03T09:07:25.460Z,72.45
2022-12-03T09:09:57.463Z,81.80
2022-12-03T09:12:29.368Z,75.78
2022-12-03T09:15:01.451Z,78.13
2022-12-03T09:17:34.439Z,71.95
2022-12-03T09:20:07.627Z,80.22
2022-12-03T09:22:39.563Z,72.60
2022-12-03T09:25:11.564Z,74.50
2022-12-03T09:27:43.710Z,77.78
2022-12-03T09:30:16.312Z,76.90
2022-12-03T09:32:48.249Z,75.85
2022-12-03T09:35:20.206Z,74.30
2022-12-03T09:37:52.457Z,84.13
2022-12-03T09:40:24.611Z,78.00
2022-12-03T09:42:58.711Z,74.88
2022-12-03T09:45:30.853Z,75.05
2022-12-03T09:48:04.823Z,79.45
2022-12-03T09:50:40.615Z,79.47
2022-12-03T09:53:20.083Z,74.70
2022-12-03T09:55:52.167Z,77.15
2022-12-03T09:58:31.725Z,78.18
2022-12-03T10:01:14.355Z,67.90
2022-12-03T10:03:50.506Z,73.55
2022-12-03T10:06:24.223Z,67.22
2022-12-03T10:08:56.480Z,77.50
2022-12-03T10:11:30.274Z,80.95
2022-12-03T10:14:02.311Z,72.10
2022-12-03T10:16:36.188Z,72.47
2022-12-03T10:19:23.056Z,80.35
2022-12-03T10:21:56.032Z,75.72
2022-12-03T10:24:29.041Z,71.38
2022-12-03T10:27:20.736Z,69.10
2022-12-03T10:30:02.126Z,78.18
2022-12-03T10:32:47.178Z,69.18
2022-12-03T10:35:26.988Z,68.20
2022-12-03T10:38:16.552Z,72.95
2022-12-03T10:40:48.780Z,71.07
2022-12-03T10:43:23.748Z,72.90
2022-12-03T10:46:04.140Z,66.60
2022-12-03T10:48:36.781Z,70.93
2022-12-03T10:51:22.491Z,64.53
2022-12-03T10:53:54.610Z,67.70
2022-12-03T10:56:27.848Z,61.42
2022-12-03T10:58:59.798Z,64.60
2022-12-03T11:01:32.413Z,69.88
2022-12-03T11:04:05.756Z,67.60
2022-12-03T11:06:37.800Z,74.90
2022-12-03T11:09:25.499Z,72.05
2022-12-03T11:12:05.059Z,62.95
2022-12-03T11:14:50.794Z,66.30
2022-12-03T11:17:50.032Z,64.07
2022-12-03T11:20:24.979Z,66.47
2022-12-03T11:22:58.684Z,65.85
2022-12-03T11:25:37.144Z,61.10
2022-12-03T11:28:12.175Z,58.80
2022-12-03T11:30:59.181Z,64.90
2022-12-03T11:33:41.600Z,60.15
2022-12-03T11:36:15.714Z,58.53
2022-12-03T11:38:54.172Z,59.92
2022-12-03T11:41:30.571Z,62.40
2022-12-03T11:44:31.551Z,57.28
2022-12-03T11:47:14.711Z,57.35
2022-12-03T11:49:48.766Z,51.35
2022-12-03T11:52:30.907Z,51.15
2022-12-03T11:55:37.444Z,54.28
2022-12-03T11:58:27.934Z,58.78
2022-12-03T12:01:02.811Z,53.83
2022-12-03T12:03:46.393Z,56.58
2022-12-03T12:06:21.159Z,59.67
2022-12-03T12:08:53.084Z,54.28
2022-12-03T12:11:37.310Z,57.13
2022-12-03T12:14:12.196Z,58.95
2022-12-03T12:16:51.476Z,55.15
2022-12-03T12:19:40.241Z,55.63
2022-12-03T12:22:18.189Z,54.33
2022-12-03T12:25:06.967Z,55.10
2022-12-03T12:27:45.669Z,53.50
2022-12-03T12:30:21.836Z,53.97
2022-12-03T12:33:10.325Z,53.28
2022-12-03T12:35:42.722Z,48.58
2022-12-03T12:38:20.859Z,46.55
2022-12-03T12:40:53.344Z,47.65
2022-12-03T12:43:33.889Z,48.80
2022-12-03T12:46:45.965Z,54.25
2022-12-03T12:49:12.273Z,58.28
2022-12-03T12:51:46.800Z,48.83
2022-12-03T12:54:19.000Z,46.92
2022-12-03T12:56:51.037Z,46.45
2022-12-03T12:59:24.541Z,49.40
2022-12-03T13:01:56.642Z,47.58
2022-12-03T13:04:30.803Z,53.13
2022-12-03T13:07:02.770Z,48.20
2022-12-03T13:09:34.713Z,45.00
2022-12-03T13:12:18.933Z,50.53
2022-12-03T13:14:52.331Z,38.20
2022-12-03T13:17:26.160Z,42.85
2022-12-03T13:20:07.283Z,48.25
2022-12-03T13:22:40.000Z,54.42
2022-12-03T13:28:30.901Z,58.35
2022-12-03T13:31:28.700Z,50.38
2022-12-03T13:34:02.329Z,52.42
2022-12-03T13:36:43.844Z,52.70
2022-12-03T13:39:35.489Z,48.47
2022-12-03T13:42:39.548Z,51.42
2022-12-03T13:45:14.741Z,50.65
2022-12-03T13:48:00.120Z,55.78
2022-12-03T13:50:40.598Z,53.90
2022-12-03T13:53:25.004Z,52.40
2022-12-03T13:56:32.842Z,53.13
2022-12-03T13:59:04.935Z,51.92
2022-12-03T14:01:37.099Z,63.75
2022-12-03T14:04:09.666Z,57.08
2022-12-03T14:06:41.694Z,53.45
2022-12-03T14:09:13.784Z,61.17
2022-12-03T14:12:04.106Z,58.25
2022-12-03T14:17:09.775Z,53.60
2022-12-03T14:19:41.958Z,63.50
2022-12-03T14:22:13.954Z,58.63
2022-12-03T14:24:46.021Z,53.08
2022-12-03T14:27:19.101Z,55.00
2022-12-03T14:29:52.438Z,50.17
2022-12-03T14:32:24.826Z,54.35
2022-12-03T14:34:56.929Z,57.90
2022-12-03T14:37:41.474Z,56.85
2022-12-03T14:40:19.606Z,54.83
2022-12-03T14:42:53.449Z,57.28
2022-12-03T14:45:27.753Z,56.33
2022-12-03T14:47:59.787Z,55.38
2022-12-03T14:50:31.789Z,62.55
2022-12-03T14:53:03.859Z,58.13
2022-12-03T14:55:36.126Z,59.80
2022-12-03T14:58:08.245Z,64.60
2022-12-03T15:00:40.195Z,65.85
2022-12-03T15:03:12.243Z,65.53
2022-12-03T15:05:44.375Z,61.45
2022-12-03T15:08:16.567Z,65.45
2022-12-03T15:10:52.093Z,57.53
2022-12-03T15:13:24.128Z,63.95
2022-12-03T15:15:56.285Z,68.55
2022-12-03T15:18:30.760Z,67.80
2022-12-03T15:21:02.769Z,67.97
2022-12-03T15:23:34.890Z,69.38
2022-12-03T15:26:07.093Z,73.93
2022-12-03T15:28:42.974Z,67.63
2022-12-03T15:31:17.485Z,70.57
2022-12-03T15:34:02.311Z,68.57
2022-12-03T15:36:34.279Z,68.85
2022-12-03T15:39:06.367Z,61.35
2022-12-03T15:41:38.583Z,72.65
2022-12-03T15:44:10.637Z,71.78
2022-12-03T15:46:42.772Z,68.20
2022-12-03T15:49:14.881Z,75.03
2022-12-03T15:51:47.444Z,78.57
2022-12-03T15:54:19.715Z,66.13
2022-12-03T15:56:57.028Z,74.18
2022-12-03T15:59:29.508Z,70.93
2022-12-03T16:02:01.796Z,76.88
2022-12-03T16:04:33.861Z,73.60
2022-12-03T16:07:05.826Z,78.78
2022-12-03T16:09:37.916Z,83.32
2022-12-03T16:12:09.911Z,69.25
2022-12-03T16:14:41.929Z,69.63
2022-12-03T16:17:13.968Z,73.38
2022-12-03T16:19:46.687Z,73.63
2022-12-03T16:22:18.746Z,64.53
2022-12-03T16:24:50.762Z,80.47
2022-12-03T16:27:25.665Z,83.43
2022-12-03T16:29:58.165Z,76.32
2022-12-03T16:32:30.177Z,73.95
2022-12-03T16:35:02.377Z,78.53
2022-12-03T16:37:34.413Z,71.45
2022-12-03T16:40:07.557Z,90.22
2022-12-03T16:42:39.709Z,79.93
2022-12-03T16:45:30.070Z,80.20
2022-12-03T16:48:02.534Z,83.28
2022-12-03T16:50:37.789Z,77.10
2022-12-03T16:53:17.576Z,91.90
2022-12-03T16:55:49.550Z,84.10
2022-12-03T16:58:21.679Z,89.97
2022-12-03T17:00:54.362Z,79.68
2022-12-03T17:03:33.656Z,76.25
2022-12-03T17:06:06.515Z,79.63
2022-12-03T17:08:38.483Z,89.18
2022-12-03T17:11:10.632Z,85.60
2022-12-03T17:13:42.611Z,94.10
2022-12-03T17:16:14.816Z,90.00
2022-12-03T17:18:46.889Z,85.25
2022-12-03T17:21:18.843Z,94.13
2022-12-03T17:23:51.165Z,93.47
2022-12-03T17:26:23.252Z,89.15
2022-12-03T17:28:55.239Z,86.32
2022-12-03T17:31:27.351Z,90.93
2022-12-03T17:33:59.450Z,86.43
2022-12-03T17:36:31.408Z,87.95
2022-12-03T17:39:03.649Z,98.15
2022-12-03T17:41:35.649Z,87.72
2022-12-03T17:44:11.386Z,91.90
2022-12-03T17:46:45.184Z,88.88
2022-12-03T17:49:17.382Z,98.88
2022-12-03T17:51:50.397Z,86.47
2022-12-03T17:54:22.733Z,94.38
2022-12-03T17:56:54.825Z,81.28
2022-12-03T17:59:26.970Z,86.70
2022-12-03T18:01:59.053Z,86.15
2022-12-03T18:04:31.101Z,83.38
2022-12-03T18:07:03.247Z,93.55
2022-12-03T18:09:35.339Z,94.40
2022-12-03T18:12:07.553Z,95.97
2022-12-03T18:14:39.525Z,84.03
2022-12-03T18:17:11.477Z,82.00
2022-12-03T18:19:43.455Z,87.47
2022-12-03T18:22:15.898Z,90.20
2022-12-03T18:24:51.543Z,85.50
2022-12-03T18:27:24.838Z,90.47
2022-12-03T18:29:57.467Z,86.07
2022-12-03T18:32:30.105Z,82.60
2022-12-03T18:35:02.315Z,79.82
2022-12-03T18:37:34.609Z,85.32
2022-12-03T18:40:13.197Z,90.10
2022-12-03T18:42:46.032Z,86.85
2022-12-03T18:45:18.376Z,94.03
2022-12-03T18:47:50.580Z,88.55
2022-12-03T18:50:22.605Z,86.45
2022-12-03T18:52:54.569Z,90.88
2022-12-03T18:55:33.756Z,84.07
2022-12-03T18:58:05.821Z,85.70
2022-12-03T19:00:38.919Z,85.00
2022-12-03T19:03:11.184Z,94.53
2022-12-03T19:05:43.159Z,103.32
2022-12-03T19:08:15.486Z,93.82
2022-12-03T19:10:59.440Z,96.43
2022-12-03T19:13:31.512Z,90.93
2022-12-03T19:16:04.833Z,86.25
2022-12-03T19:18:37.014Z,92.85
2022-12-03T19:21:15.504Z,90.93
2022-12-03T19:24:22.221Z,90.80
2022-12-03T19:26:39.837Z,103.25
2022-12-03T19:29:12.141Z,105.00
2022-12-03T19:31:44.111Z,93.88
2022-12-03T19:34:16.638Z,103.20
2022-12-03T19:36:48.635Z,108.65
2022-12-03T19:39:20.625Z,100.63
2022-12-03T19:41:52.573Z,93.15
2022-12-03T19:44:24.881Z,92.55
2022-12-03T19:46:57.421Z,102.00
2022-12-03T19:49:29.533Z,93.85
2022-12-03T19:52:01.549Z,86.45
2022-12-03T19:54:33.592Z,92.97
2022-12-03T19:57:05.536Z,92.68
2022-12-03T19:59:37.508Z,84.85
2022-12-03T20:02:12.607Z,91.57
2022-12-03T20:04:44.659Z,100.07
2022-12-03T20:07:17.070Z,95.28
2022-12-03T20:09:51.631Z,111.20
2022-12-03T20:12:23.815Z,97.03
2022-12-03T20:14:55.829Z,85.13
2022-12-03T20:17:27.732Z,84.97
2022-12-03T20:19:59.707Z,80.40
2022-12-03T20:22:31.624Z,88.93
2022-12-03T20:25:04.076Z,88.45
2022-12-03T20:27:36.469Z,97.32
2022-12-03T20:30:09.132Z,87.57
2022-12-03T20:32:45.249Z,82.40
2022-12-03T20:35:17.734Z,86.07
2022-12-03T20:37:49.696Z,99.80
2022-12-03T20:40:21.705Z,89.80
2022-12-03T20:42:53.774Z,97.97
2022-12-03T20:45:27.008Z,99.72
2022-12-03T20:47:59.077Z,89.13
2022-12-03T20:50:31.085Z,101.85
2022-12-03T20:53:23.753Z,100.35
2022-12-03T20:55:56.929Z,88.60
2022-12-03T20:58:30.633Z,101.68
2022-12-03T21:01:21.192Z,88.93
2022-12-03T21:03:55.496Z,90.60
2022-12-03T21:06:30.030Z,85.85
2022-12-03T21:09:04.657Z,80.55
2022-12-03T21:11:40.205Z,77.63
2022-12-03T21:14:12.566Z,94.28
2022-12-03T21:17:07.861Z,90.03
2022-12-03T21:19:40.951Z,86.10
2022-12-03T21:22:13.023Z,94.60
2022-12-03T21:24:45.189Z,84.22
2022-12-03T21:27:21.552Z,91.55
2022-12-03T21:29:54.627Z,96.65
2022-12-03T21:32:26.718Z,92.85
2022-12-03T21:34:58.673Z,91.80
2022-12-03T21:37:30.639Z,86.85
2022-12-03T21:40:02.579Z,95.75
2022-12-03T21:42:37.199Z,99.88
2022-12-03T21:45:09.979Z,94.75
2022-12-03T21:47:42.003Z,113.25
2022-12-03T21:50:14.878Z,118.47
2022-12-03T21:52:46.947Z,96.60
2022-12-03T21:55:18.932Z,100.97
2022-12-03T21:57:50.968Z,101.32
2022-12-03T22:00:32.665Z,99.57
2022-12-03T22:03:05.067Z,106.55
2022-12-03T22:05:39.046Z,98.68
2022-12-03T22:08:11.124Z,102.13
2022-12-03T22:10:45.295Z,99.88
2022-12-03T22:13:17.380Z,102.22
2022-12-03T22:15:49.420Z,99.25
2022-12-03T22:18:21.573Z,105.03
2022-12-03T22:20:53.647Z,98.72
2022-12-03T22:23:25.632Z,103.47
2022-12-03T22:26:09.094Z,98.05
2022-12-03T22:28:50.030Z,94.15
2022-12-03T22:31:22.017Z,93.85
2022-12-03T22:33:54.074Z,92.00
2022-12-03T22:36:25.985Z,100.75
2022-12-03T22:38:58.427Z,103.40
2022-12-03T22:41:30.379Z,138.57
2022-12-03T22:44:02.607Z,93.32
2022-12-03T22:46:34.587Z,93.78
2022-12-03T22:49:07.608Z,92.18
2022-12-03T22:51:40.139Z,94.80
2022-12-03T22:54:12.640Z,84.53
2022-12-03T22:56:44.767Z,104.70
2022-12-03T22:59:16.763Z,101.28
2022-12-03T23:01:48.907Z,109.50
2022-12-03T23:04:21.634Z,94.70
2022-12-03T23:06:53.650Z,100.63
2022-12-03T23:09:25.679Z,102.43
2022-12-03T23:11:57.623Z,98.32
2022-12-03T23:14:29.558Z,100.10
2022-12-03T23:17:01.520Z,92.15
2022-12-03T23:19:33.530Z,90.47
2022-12-03T23:22:05.511Z,101.78
2022-12-03T23:24:37.478Z,86.85
2022-12-03T23:27:09.532Z,92.82
2022-12-03T23:29:41.508Z,99.95
2022-12-03T23:32:13.484Z,77.97
2022-12-03T23:34:45.639Z,93.30
2022-12-03T23:37:17.677Z,95.82
2022-12-03T23:39:54.431Z,93.88
2022-12-03T23:42:26.601Z,86.50
2022-12-03T23:44:58.645Z,96.80
2022-12-03T23:47:31.310Z,86.90
2022-12-03T23:50:04.980Z,106.35
2022-12-03T23:52:37.046Z,110.35
2022-12-03T23:55:10.626Z,132.43
2022-12-03T23:57:42.586Z,90.00
